createdAt,value
2022-12-29T00:02:23.543Z,81.40
2022-12-29T00:04:56.193Z,80.96
2022-12-29T00:07:28.870Z,81.01
2022-12-29T00:10:01.561Z,81.46
2022-12-29T00:12:52.968Z,82.00
2022-12-29T00:15:37.905Z,81.46
2022-12-29T00:18:10.604Z,81.80
2022-12-29T00:21:01.943Z,81.76
2022-12-29T00:23:53.516Z,82.24
2022-12-29T00:26:44.570Z,82.49
2022-12-29T00:29:35.934Z,83.33
2022-12-29T00:32:29.888Z,83.44
2022-12-29T00:35:11.847Z,84.58
2022-12-29T00:38:07.395Z,85.74
2022-12-29T00:40:59.742Z,85.85
2022-12-29T00:43:51.104Z,87.09
2022-12-29T00:46:23.830Z,86.62
2022-12-29T00:49:16.921Z,87.47
2022-12-29T00:51:51.760Z,87.43
2022-12-29T00:54:24.375Z,87.96
2022-12-29T00:56:57.159Z,88.53
2022-12-29T00:59:29.769Z,88.58
2022-12-29T01:02:02.511Z,88.57
2022-12-29T01:04:35.941Z,88.83
2022-12-29T01:07:08.454Z,88.48
2022-12-29T01:10:03.960Z,87.77
2022-12-29T01:12:42.613Z,87.01
2022-12-29T01:15:16.232Z,87.27
2022-12-29T01:17:48.798Z,86.96
2022-12-29T01:20:21.925Z,86.54
2022-12-29T01:22:54.494Z,85.92
2022-12-29T01:25:27.017Z,85.28
2022-12-29T01:27:59.680Z,85.08
2022-12-29T01:30:36.135Z,84.51
2022-12-29T01:33:08.676Z,84.35
2022-12-29T01:35:41.369Z,83.76
2022-12-29T01:38:13.954Z,83.46
2022-12-29T01:40:47.852Z,83.38
2022-12-29T01:43:21.074Z,83.49
2022-12-29T01:45:55.424Z,82.54
2022-12-29T01:48:27.997Z,82.06
2022-12-29T01:51:00.729Z,81.54
2022-12-29T01:53:37.217Z,81.54
2022-12-29T01:56:18.257Z,80.86
2022-12-29T01:59:04.826Z,80.25
2022-12-29T02:01:37.982Z,79.98
2022-12-29T02:04:13.476Z,79.91
2022-12-29T02:06:54.418Z,79.85
2022-12-29T02:09:27.143Z,79.58
2022-12-29T02:12:00.884Z,79.25
2022-12-29T02:14:33.467Z,79.82
2022-12-29T02:17:25.948Z,79.11
2022-12-29T02:20:37.286Z,78.50
2022-12-29T02:23:46.896Z,78.56
2022-12-29T02:27:14.875Z,78.41
2022-12-29T02:30:28.120Z,78.40
2022-12-29T02:33:06.739Z,78.83
2022-12-29T02:36:22.510Z,79.10
2022-12-29T02:39:12.575Z,79.62
2022-12-29T02:41:55.245Z,80.10
2022-12-29T02:44:50.934Z,79.43
2022-12-29T02:47:54.033Z,80.35
2022-12-29T02:50:39.349Z,80.32
2022-12-29T02:53:39.405Z,80.75
2022-12-29T02:56:11.981Z,80.71
2022-12-29T02:58:44.623Z,80.46
2022-12-29T03:02:04.312Z,80.71
2022-12-29T03:05:16.034Z,80.50
2022-12-29T03:08:05.255Z,80.25
2022-12-29T03:10:51.479Z,80.28
2022-12-29T03:14:12.270Z,80.08
2022-12-29T03:16:58.441Z,79.58
2022-12-29T03:19:41.060Z,79.93
2022-12-29T03:22:28.541Z,80.32
2022-12-29T03:25:07.638Z,80.07
2022-12-29T03:27:52.587Z,80.35
2022-12-29T03:30:29.306Z,79.96
2022-12-29T03:33:09.484Z,80.33
2022-12-29T03:35:45.987Z,80.27
2022-12-29T03:38:31.290Z,80.63
2022-12-29T03:41:12.081Z,80.22
2022-12-29T03:43:44.634Z,80.57
2022-12-29T03:46:17.141Z,80.64
2022-12-29T03:48:50.988Z,81.29
2022-12-29T03:51:23.583Z,81.81
2022-12-29T03:53:56.677Z,82.00
2022-12-29T03:56:29.382Z,81.73
2022-12-29T03:59:01.852Z,81.96
2022-12-29T04:01:34.494Z,82.22
2022-12-29T04:04:07.142Z,81.72
2022-12-29T04:06:40.475Z,81.90
2022-12-29T04:09:13.218Z,83.03
2022-12-29T04:11:45.828Z,83.59
2022-12-29T04:14:18.418Z,84.24
2022-12-29T04:16:50.978Z,83.76
2022-12-29T04:19:23.556Z,84.01
2022-12-29T04:21:56.152Z,84.32
2022-12-29T04:24:28.706Z,84.27
2022-12-29T04:27:01.261Z,83.91
2022-12-29T04:29:33.887Z,83.26
2022-12-29T04:32:06.721Z,82.96
2022-12-29T04:34:40.085Z,82.48
2022-12-29T04:37:12.674Z,82.24
2022-12-29T04:39:45.296Z,82.19
2022-12-29T04:42:17.815Z,82.46
2022-12-29T04:44:50.917Z,82.28
2022-12-29T04:47:23.546Z,81.45
2022-12-29T04:49:56.115Z,81.36
2022-12-29T04:52:28.635Z,81.36
2022-12-29T04:55:01.492Z,80.78
2022-12-29T04:57:34.132Z,80.71
2022-12-29T05:00:09.813Z,79.68
2022-12-29T05:02:42.628Z,79.44
2022-12-29T05:05:15.429Z,79.82
2022-12-29T05:07:48.043Z,78.79
2022-12-29T05:10:20.795Z,78.52
2022-12-29T05:12:53.325Z,78.43
2022-12-29T05:15:25.931Z,78.32
2022-12-29T05:17:58.551Z,78.47
2022-12-29T05:20:31.175Z,78.28
2022-12-29T05:23:03.673Z,78.35
2022-12-29T05:25:36.361Z,78.27
2022-12-29T05:28:08.959Z,78.45
2022-12-29T05:30:41.560Z,78.09
2022-12-29T05:33:14.162Z,78.74
2022-12-29T05:35:47.265Z,78.84
2022-12-29T05:38:19.832Z,78.49
2022-12-29T05:40:52.355Z,78.02
2022-12-29T05:43:24.890Z,77.48
2022-12-29T05:45:58.500Z,77.61
2022-12-29T05:48:37.511Z,76.72
2022-12-29T05:51:12.551Z,75.86
2022-12-29T05:53:45.335Z,75.46
2022-12-29T05:56:18.205Z,75.32
2022-12-29T05:58:51.244Z,74.74
2022-12-29T06:01:23.933Z,74.42
2022-12-29T06:03:56.635Z,75.12
2022-12-29T06:06:31.863Z,74.68
2022-12-29T06:09:04.473Z,75.00
2022-12-29T06:11:37.074Z,75.12
2022-12-29T06:14:09.797Z,74.62
2022-12-29T06:16:42.940Z,74.63
2022-12-29T06:19:15.655Z,74.38
2022-12-29T06:21:48.416Z,73.97
2022-12-29T06:24:21.320Z,73.71
2022-12-29T06:26:53.856Z,73.40
2022-12-29T06:29:26.426Z,73.13
2022-12-29T06:31:59.375Z,74.00
2022-12-29T06:34:32.058Z,73.62
2022-12-29T06:37:04.999Z,73.83
2022-12-29T06:39:37.638Z,73.58
2022-12-29T06:42:10.811Z,73.71
2022-12-29T06:44:43.767Z,73.96
2022-12-29T06:47:16.582Z,74.32
2022-12-29T06:49:49.335Z,74.20
2022-12-29T06:52:21.947Z,73.96
2022-12-29T06:54:54.469Z,73.39
2022-12-29T06:57:27.533Z,73.43
2022-12-29T07:00:00.185Z,72.94
2022-12-29T07:02:32.926Z,73.13
2022-12-29T07:05:06.250Z,72.96
2022-12-29T07:07:38.857Z,72.57
2022-12-29T07:10:11.354Z,72.38
2022-12-29T07:12:43.940Z,72.25
2022-12-29T07:15:16.760Z,72.11
2022-12-29T07:17:50.692Z,71.36
2022-12-29T07:20:26.783Z,70.89
2022-12-29T07:22:59.834Z,70.78
2022-12-29T07:25:32.387Z,71.29
2022-12-29T07:28:05.157Z,70.48
2022-12-29T07:30:39.461Z,70.44
2022-12-29T07:33:12.030Z,70.60
2022-12-29T07:35:44.607Z,69.97
2022-12-29T07:38:17.659Z,69.51
2022-12-29T07:40:50.277Z,69.97
2022-12-29T07:43:22.838Z,70.02
2022-12-29T07:45:55.460Z,69.48
2022-12-29T07:48:28.182Z,70.42
2022-12-29T07:51:00.684Z,69.68
2022-12-29T07:53:33.515Z,70.09
2022-12-29T07:56:07.019Z,69.96
2022-12-29T07:58:39.650Z,69.81
2022-12-29T08:01:12.230Z,70.48
2022-12-29T08:03:44.944Z,70.12
2022-12-29T08:06:17.634Z,69.67
2022-12-29T08:08:50.153Z,69.42
2022-12-29T08:11:23.006Z,69.93
2022-12-29T08:13:55.648Z,69.42
2022-12-29T08:16:28.262Z,68.44
2022-12-29T08:19:01.057Z,68.10
2022-12-29T08:21:33.729Z,68.32
2022-12-29T08:24:07.470Z,67.68
2022-12-29T08:26:40.025Z,67.62
2022-12-29T08:29:12.606Z,67.15
2022-12-29T08:31:45.254Z,67.44
2022-12-29T08:34:17.887Z,67.73
2022-12-29T08:36:50.635Z,68.18
2022-12-29T08:39:23.400Z,67.62
2022-12-29T08:41:55.960Z,67.55
2022-12-29T08:44:28.494Z,67.33
2022-12-29T08:47:01.154Z,67.37
2022-12-29T08:49:34.312Z,66.84
2022-12-29T08:52:07.094Z,67.06
2022-12-29T08:54:39.632Z,66.90
2022-12-29T08:57:12.295Z,67.21
2022-12-29T08:59:45.011Z,67.33
2022-12-29T09:02:23.715Z,66.89
2022-12-29T09:04:58.390Z,67.02
2022-12-29T09:07:30.978Z,67.20
2022-12-29T09:10:04.820Z,67.32
2022-12-29T09:12:37.384Z,66.75
2022-12-29T09:15:10.470Z,67.81
2022-12-29T09:17:46.584Z,69.00
2022-12-29T09:20:20.611Z,68.34
2022-12-29T09:22:53.275Z,69.36
2022-12-29T09:25:26.052Z,68.96
2022-12-29T09:27:58.839Z,69.75
2022-12-29T09:30:31.339Z,69.85
2022-12-29T09:33:03.984Z,71.83
2022-12-29T09:35:37.312Z,71.97
2022-12-29T09:38:10.570Z,71.71
2022-12-29T09:40:50.337Z,71.40
2022-12-29T09:43:55.768Z,71.13
2022-12-29T09:46:38.089Z,71.65
2022-12-29T09:49:19.754Z,72.16
2022-12-29T09:52:00.242Z,72.50
2022-12-29T09:55:03.186Z,72.55
2022-12-29T09:58:06.259Z,72.60
2022-12-29T10:00:55.142Z,73.18
2022-12-29T10:03:46.067Z,74.71
2022-12-29T10:06:33.059Z,74.82
2022-12-29T10:09:17.693Z,75.64
2022-12-29T10:12:34.086Z,77.80
2022-12-29T10:15:45.650Z,78.29
2022-12-29T10:18:46.718Z,78.68
2022-12-29T10:21:47.421Z,79.25
2022-12-29T10:24:22.912Z,79.52
2022-12-29T10:26:59.228Z,79.81
2022-12-29T10:29:43.869Z,79.71
2022-12-29T10:32:54.840Z,80.24
2022-12-29T10:35:36.871Z,80.57
2022-12-29T10:38:26.428Z,80.24
2022-12-29T10:41:22.572Z,80.17
2022-12-29T10:43:58.469Z,79.48
2022-12-29T10:46:37.643Z,80.09
2022-12-29T10:49:21.771Z,80.13
2022-12-29T10:52:00.761Z,80.75
2022-12-29T10:54:49.979Z,80.35
2022-12-29T10:57:33.671Z,80.06
2022-12-29T11:00:23.415Z,80.73
2022-12-29T11:04:00.154Z,81.43
2022-12-29T11:06:33.268Z,82.62
2022-12-29T11:09:36.560Z,83.52
2022-12-29T11:12:32.056Z,83.33
2022-12-29T11:15:10.603Z,83.28
2022-12-29T11:18:00.570Z,83.04
2022-12-29T11:20:35.101Z,82.03
2022-12-29T11:23:35.424Z,81.83
2022-12-29T11:26:20.499Z,81.22
2022-12-29T11:29:15.103Z,80.33
2022-12-29T11:32:00.219Z,80.77
2022-12-29T11:34:36.639Z,79.91
2022-12-29T11:37:20.657Z,78.97
2022-12-29T11:40:20.310Z,78.85
2022-12-29T11:42:57.841Z,78.66
2022-12-29T11:45:36.178Z,79.33
2022-12-29T11:48:19.893Z,79.69
2022-12-29T11:51:00.615Z,78.74
2022-12-29T11:53:42.844Z,78.29
2022-12-29T11:56:20.513Z,78.67
2022-12-29T11:58:54.299Z,77.15
2022-12-29T12:01:39.793Z,76.92
2022-12-29T12:04:18.468Z,76.31
2022-12-29T12:07:03.517Z,75.41
2022-12-29T12:09:52.712Z,75.34
2022-12-29T12:12:36.327Z,75.04
2022-12-29T12:15:30.259Z,74.59
2022-12-29T12:18:12.790Z,74.15
2022-12-29T12:20:59.632Z,73.29
2022-12-29T12:24:01.452Z,73.03
2022-12-29T12:26:58.611Z,72.31
2022-12-29T12:29:57.612Z,72.71
2022-12-29T12:32:47.642Z,72.65
2022-12-29T12:35:45.121Z,72.05
2022-12-29T12:38:54.722Z,71.38
2022-12-29T12:41:41.151Z,69.76
2022-12-29T12:44:29.551Z,70.03
2022-12-29T12:47:28.911Z,68.79
2022-12-29T12:50:16.784Z,68.76
2022-12-29T12:53:21.776Z,68.72
2022-12-29T12:56:30.734Z,68.86
2022-12-29T12:59:36.733Z,68.99
2022-12-29T13:03:01.883Z,69.05
2022-12-29T13:05:53.292Z,69.87
2022-12-29T13:08:44.021Z,69.74
2022-12-29T13:11:43.154Z,71.67
2022-12-29T13:14:25.829Z,72.18
2022-12-29T13:17:16.476Z,71.92
2022-12-29T13:20:35.106Z,73.88
2022-12-29T13:23:35.055Z,76.37
2022-12-29T13:26:26.581Z,78.41
2022-12-29T13:29:02.015Z,78.95
2022-12-29T13:31:54.568Z,80.08
2022-12-29T13:34:36.215Z,81.12
2022-12-29T13:37:19.797Z,82.14
2022-12-29T13:40:00.813Z,82.43
2022-12-29T13:42:35.545Z,82.40
2022-12-29T13:45:17.425Z,82.58
2022-12-29T13:47:58.828Z,82.87
2022-12-29T13:50:39.395Z,82.81
2022-12-29T13:53:39.738Z,82.74
2022-12-29T13:56:43.255Z,83.17
2022-12-29T13:59:41.597Z,83.71
2022-12-29T14:02:40.467Z,83.36
2022-12-29T14:05:19.228Z,83.96
2022-12-29T14:08:01.831Z,83.56
2022-12-29T14:10:38.031Z,84.02
2022-12-29T14:13:19.561Z,83.55
2022-12-29T14:16:02.689Z,84.26
2022-12-29T14:18:44.821Z,83.53
2022-12-29T14:21:17.286Z,83.67
2022-12-29T14:23:52.065Z,83.27
2022-12-29T14:26:30.712Z,82.49
2022-12-29T14:29:25.264Z,82.70
2022-12-29T14:31:58.117Z,82.25
2022-12-29T14:34:39.678Z,82.01
2022-12-29T14:37:34.208Z,81.38
2022-12-29T14:40:27.283Z,81.46
2022-12-29T14:43:00.392Z,81.35
2022-12-29T14:45:38.339Z,81.21
2022-12-29T14:48:45.323Z,80.72
2022-12-29T14:51:32.437Z,80.67
2022-12-29T14:54:38.924Z,80.69
2022-12-29T14:57:30.751Z,81.04
2022-12-29T15:00:32.005Z,80.03
2022-12-29T15:03:18.282Z,80.45
2022-12-29T15:05:57.358Z,80.24
2022-12-29T15:08:38.665Z,79.92
2022-12-29T15:11:23.711Z,79.51
2022-12-29T15:13:56.480Z,79.39
2022-12-29T15:16:28.988Z,79.41
2022-12-29T15:19:01.577Z,78.90
2022-12-29T15:21:37.491Z,78.28
2022-12-29T15:24:12.091Z,78.23
2022-12-29T15:26:52.942Z,78.38
2022-12-29T15:29:42.525Z,77.29
2022-12-29T15:32:22.882Z,77.88
2022-12-29T15:35:02.298Z,78.20
2022-12-29T15:37:39.150Z,77.49
2022-12-29T15:40:33.626Z,77.93
2022-12-29T15:43:33.542Z,77.77
2022-12-29T15:46:06.464Z,78.33
2022-12-29T15:48:41.482Z,77.98
2022-12-29T15:51:34.337Z,77.93
2022-12-29T15:54:17.439Z,77.93
2022-12-29T15:56:50.945Z,78.07
2022-12-29T15:59:31.980Z,78.00
2022-12-29T16:02:12.601Z,78.00
2022-12-29T16:05:09.145Z,78.10
2022-12-29T16:07:42.014Z,78.08
2022-12-29T16:10:36.790Z,77.74
2022-12-29T16:13:15.232Z,78.26
2022-12-29T16:15:50.625Z,77.59
2022-12-29T16:18:29.422Z,77.98
2022-12-29T16:21:06.132Z,77.70
2022-12-29T16:23:38.742Z,77.45
2022-12-29T16:26:19.134Z,77.74
2022-12-29T16:28:58.270Z,77.16
2022-12-29T16:31:37.764Z,77.25
2022-12-29T16:34:30.863Z,77.39
2022-12-29T16:37:28.829Z,77.11
2022-12-29T16:40:20.561Z,76.97
2022-12-29T16:43:01.522Z,77.05
2022-12-29T16:45:49.208Z,76.65
2022-12-29T16:48:35.983Z,76.60
2022-12-29T16:51:37.339Z,77.16
2022-12-29T16:54:24.436Z,77.16
2022-12-29T16:56:57.490Z,76.80
2022-12-29T16:59:43.332Z,76.27
2022-12-29T17:02:21.808Z,76.76
2022-12-29T17:04:54.552Z,76.40
2022-12-29T17:07:29.131Z,77.00
2022-12-29T17:10:01.673Z,76.79
2022-12-29T17:12:37.518Z,76.73
2022-12-29T17:15:27.126Z,76.83
2022-12-29T17:18:00.792Z,76.72
2022-12-29T17:20:33.282Z,77.05
2022-12-29T17:23:19.933Z,77.07
2022-12-29T17:25:58.916Z,76.50
2022-12-29T17:28:33.165Z,76.72
2022-12-29T17:31:07.654Z,76.85
2022-12-29T17:33:42.703Z,76.42
2022-12-29T17:36:15.557Z,76.81
2022-12-29T17:38:48.044Z,77.05
2022-12-29T17:41:20.558Z,76.74
2022-12-29T17:43:53.100Z,76.89
2022-12-29T17:46:25.709Z,77.01
2022-12-29T17:48:58.713Z,77.26
2022-12-29T17:51:31.260Z,77.54
2022-12-29T17:54:03.869Z,77.25
2022-12-29T17:56:36.377Z,77.30
2022-12-29T17:59:14.117Z,78.15
2022-12-29T18:01:49.458Z,78.56
2022-12-29T18:04:22.508Z,78.40
2022-12-29T18:06:54.996Z,78.59
2022-12-29T18:09:27.518Z,78.21
2022-12-29T18:12:00.174Z,77.98
2022-12-29T18:14:32.720Z,77.84
2022-12-29T18:17:12.773Z,78.41
2022-12-29T18:19:45.390Z,78.45
2022-12-29T18:22:17.984Z,78.26
2022-12-29T18:24:51.311Z,78.65
2022-12-29T18:27:23.953Z,78.50
2022-12-29T18:29:56.593Z,78.00
2022-12-29T18:32:29.113Z,78.34
2022-12-29T18:35:01.606Z,77.94
2022-12-29T18:37:34.111Z,78.61
2022-12-29T18:40:09.855Z,78.82
2022-12-29T18:42:42.742Z,78.53
2022-12-29T18:45:23.468Z,78.81
2022-12-29T18:47:55.946Z,79.35
2022-12-29T18:50:28.500Z,79.32
2022-12-29T18:53:04.046Z,79.11
2022-12-29T18:55:36.946Z,79.92
2022-12-29T18:58:09.462Z,79.20
2022-12-29T19:00:42.978Z,79.62
2022-12-29T19:03:18.518Z,79.74
2022-12-29T19:05:51.361Z,79.46
2022-12-29T19:08:24.899Z,80.11
2022-12-29T19:10:59.757Z,80.55
2022-12-29T19:13:33.628Z,79.61
2022-12-29T19:16:08.985Z,79.54
2022-12-29T19:18:44.770Z,79.60
2022-12-29T19:21:20.036Z,79.52
2022-12-29T19:23:53.050Z,79.59
2022-12-29T19:26:35.981Z,79.74
2022-12-29T19:29:17.872Z,79.46
2022-12-29T19:31:50.611Z,79.46
2022-12-29T19:34:23.158Z,79.74
2022-12-29T19:36:56.882Z,79.40
2022-12-29T19:39:29.558Z,79.38
2022-12-29T19:42:05.499Z,78.78
2022-12-29T19:44:38.155Z,78.54
2022-12-29T19:47:11.034Z,78.75
2022-12-29T19:49:43.691Z,78.35
2022-12-29T19:52:16.303Z,78.67
2022-12-29T19:54:48.889Z,78.27
2022-12-29T19:57:22.701Z,77.51
2022-12-29T19:59:55.423Z,77.60
2022-12-29T20:02:33.261Z,77.61
2022-12-29T20:05:06.800Z,77.44
2022-12-29T20:07:42.563Z,77.22
2022-12-29T20:10:15.247Z,77.58
2022-12-29T20:12:48.043Z,77.64
2022-12-29T20:15:20.544Z,76.76
2022-12-29T20:20:45.863Z,77.32
2022-12-29T20:23:18.981Z,77.18
2022-12-29T20:25:59.949Z,76.97
2022-12-29T20:28:32.841Z,77.19
2022-12-29T20:31:14.832Z,77.76
2022-12-29T20:33:47.952Z,77.28
2022-12-29T20:36:29.054Z,77.27
2022-12-29T20:39:08.041Z,77.17
2022-12-29T20:41:40.963Z,77.25
2022-12-29T20:44:13.942Z,76.87
2022-12-29T20:46:46.628Z,77.60
2022-12-29T20:49:22.355Z,77.19
2022-12-29T20:52:10.923Z,77.48
2022-12-29T20:54:44.635Z,77.05
2022-12-29T20:57:17.221Z,77.66
2022-12-29T20:59:49.949Z,77.62
2022-12-29T21:02:23.733Z,77.39
2022-12-29T21:05:22.651Z,77.16
2022-12-29T21:07:50.949Z,77.71
2022-12-29T21:10:23.542Z,77.54
2022-12-29T21:12:56.815Z,77.43
2022-12-29T21:15:29.960Z,77.74
2022-12-29T21:18:02.534Z,77.82
2022-12-29T21:20:35.130Z,77.32
2022-12-29T21:23:08.075Z,77.47
2022-12-29T21:25:44.279Z,78.13
2022-12-29T21:28:16.791Z,77.95
2022-12-29T21:30:50.901Z,77.96
2022-12-29T21:33:23.573Z,77.72
2022-12-29T21:35:56.282Z,77.94
2022-12-29T21:38:31.888Z,77.77
2022-12-29T21:41:10.773Z,77.86
2022-12-29T21:44:04.805Z,78.45
2022-12-29T21:46:41.619Z,78.30
2022-12-29T21:49:14.405Z,78.03
2022-12-29T21:51:57.502Z,78.45
2022-12-29T21:54:50.030Z,77.99
2022-12-29T21:57:41.578Z,77.89
2022-12-29T22:00:33.692Z,78.63
2022-12-29T22:03:24.859Z,78.13
2022-12-29T22:06:16.461Z,78.11
2022-12-29T22:09:07.575Z,77.87
2022-12-29T22:11:58.903Z,77.57
2022-12-29T22:14:31.415Z,77.85
2022-12-29T22:17:03.969Z,78.15
2022-12-29T22:19:36.576Z,78.38
2022-12-29T22:22:09.132Z,78.06
2022-12-29T22:24:41.702Z,78.00
2022-12-29T22:27:14.284Z,77.60
2022-12-29T22:29:46.859Z,78.11
2022-12-29T22:32:19.695Z,77.77
2022-12-29T22:34:52.320Z,78.24
2022-12-29T22:37:25.064Z,77.94
2022-12-29T22:39:57.600Z,77.49
2022-12-29T22:42:30.236Z,76.67
2022-12-29T22:45:02.784Z,77.98
2022-12-29T22:47:35.519Z,77.63
2022-12-29T22:50:08.837Z,77.63
2022-12-29T22:52:41.437Z,77.98
2022-12-29T22:55:14.011Z,77.96
2022-12-29T22:57:46.861Z,77.96
2022-12-29T23:00:19.507Z,78.21
2022-12-29T23:02:52.228Z,77.95
2022-12-29T23:05:24.933Z,78.45
2022-12-29T23:07:57.783Z,78.49
2022-12-29T23:10:30.494Z,78.71
2022-12-29T23:13:04.350Z,78.42
2022-12-29T23:15:36.901Z,78.54
2022-12-29T23:18:09.485Z,78.76
2022-12-29T23:20:42.468Z,78.71
2022-12-29T23:23:36.689Z,78.65
2022-12-29T23:26:09.231Z,78.93
2022-12-29T23:28:42.544Z,79.02
2022-12-29T23:31:16.570Z,79.12
2022-12-29T23:33:49.850Z,78.97
2022-12-29T23:36:23.245Z,78.78
2022-12-29T23:38:57.289Z,78.88
2022-12-29T23:41:30.554Z,78.78
2022-12-29T23:44:03.628Z,78.93
2022-12-29T23:46:36.897Z,78.89
2022-12-29T23:49:10.103Z,78.44
2022-12-29T23:51:43.264Z,78.98
2022-12-29T23:54:15.873Z,78.82
2022-12-29T23:56:48.471Z,79.03
2022-12-29T23:59:21.035Z,79.39
